createdAt,value
2018-05-07T00:01:27.522Z,12.93
2018-05-07T00:03:56.845Z,13.13
2018-05-07T00:06:45.630Z,13.70
2018-05-07T00:09:14.136Z,13.57
2018-05-07T00:11:43.097Z,14.20
2018-05-07T00:14:19.953Z,14.83
2018-05-07T00:16:49.290Z,13.90
2018-05-07T00:19:18.394Z,13.83
2018-05-07T00:21:46.696Z,13.87
2018-05-07T00:24:14.853Z,13.17
2018-05-07T00:26:42.437Z,13.80
2018-05-07T00:29:15.697Z,12.73
2018-05-07T00:31:45.523Z,13.70
2018-05-07T00:34:17.537Z,13.60
2018-05-07T00:36:45.988Z,13.67
2018-05-07T00:39:14.631Z,14.97
2018-05-07T00:41:46.238Z,14.67
2018-05-07T00:44:15.281Z,13.90
2018-05-07T00:46:42.849Z,13.83
2018-05-07T00:49:11.764Z,14.57
2018-05-07T00:51:40.004Z,14.47
2018-05-07T00:54:07.784Z,14.20
2018-05-07T00:56:37.539Z,14.90
2018-05-07T00:59:05.573Z,14.73
2018-05-07T01:01:38.491Z,13.43
2018-05-07T01:04:06.051Z,14.50
2018-05-07T01:06:33.798Z,15.37
2018-05-07T01:09:01.717Z,14.67
2018-05-07T01:11:30.863Z,12.87
2018-05-07T01:13:58.596Z,14.60
2018-05-07T01:16:26.620Z,13.30
2018-05-07T01:18:54.998Z,13.70
2018-05-07T01:21:24.697Z,13.77
2018-05-07T01:23:56.056Z,14.60
2018-05-07T01:26:25.833Z,13.87
2018-05-07T01:28:54.083Z,13.60
2018-05-07T01:31:25.524Z,12.83
2018-05-07T01:33:56.127Z,13.67
2018-05-07T01:36:24.258Z,13.57
2018-05-07T01:38:53.129Z,13.90
2018-05-07T01:41:22.184Z,12.93
2018-05-07T01:43:49.718Z,12.57
2018-05-07T01:46:18.469Z,13.53
2018-05-07T01:48:46.421Z,13.20
2018-05-07T01:51:15.125Z,13.13
2018-05-07T01:53:43.319Z,14.33
2018-05-07T01:56:12.669Z,14.77
2018-05-07T01:58:42.675Z,13.70
2018-05-07T02:01:11.613Z,13.47
2018-05-07T02:03:41.051Z,14.10
2018-05-07T02:06:12.125Z,13.10
2018-05-07T02:08:42.270Z,14.03
2018-05-07T02:11:15.046Z,14.33
2018-05-07T02:13:42.586Z,14.10
2018-05-07T02:16:11.427Z,15.27
2018-05-07T02:18:39.192Z,13.40
2018-05-07T02:21:07.017Z,14.03
2018-05-07T02:23:34.583Z,13.73
2018-05-07T02:26:02.154Z,14.10
2018-05-07T02:28:30.114Z,14.07
2018-05-07T02:30:58.754Z,14.63
2018-05-07T02:33:26.697Z,15.10
2018-05-07T02:35:54.928Z,14.93
2018-05-07T02:38:24.849Z,14.10
2018-05-07T02:40:52.379Z,14.67
2018-05-07T02:43:22.881Z,13.23
2018-05-07T02:45:52.098Z,14.40
2018-05-07T02:48:19.792Z,14.07
2018-05-07T02:50:47.332Z,14.80
2018-05-07T02:53:14.867Z,14.80
2018-05-07T02:55:42.411Z,14.20
2018-05-07T02:58:12.109Z,14.03
2018-05-07T03:00:40.110Z,13.80
2018-05-07T03:03:07.650Z,14.23
2018-05-07T03:05:35.667Z,14.60
2018-05-07T03:08:04.178Z,14.87
2018-05-07T03:10:33.583Z,14.43
2018-05-07T03:13:01.270Z,14.73
2018-05-07T03:15:28.925Z,14.97
2018-05-07T03:17:56.632Z,15.10
2018-05-07T03:20:24.733Z,14.43
2018-05-07T03:23:27.674Z,13.83
2018-05-07T03:25:55.847Z,14.33
2018-05-07T03:28:26.466Z,14.23
2018-05-07T03:30:54.692Z,14.87
2018-05-07T03:33:29.343Z,13.93
2018-05-07T03:36:03.288Z,14.13
2018-05-07T03:38:58.868Z,14.97
2018-05-07T03:41:30.974Z,14.83
2018-05-07T03:44:02.308Z,15.23
2018-05-07T03:46:30.535Z,15.50
2018-05-07T03:49:00.508Z,15.20
2018-05-07T03:51:31.457Z,14.23
2018-05-07T03:54:38.888Z,14.80
2018-05-07T03:57:10.562Z,15.23
2018-05-07T03:59:39.437Z,15.37
2018-05-07T04:02:11.081Z,15.07
2018-05-07T04:04:39.789Z,15.50
2018-05-07T04:07:08.514Z,15.20
2018-05-07T04:09:39.468Z,14.87
2018-05-07T04:12:09.281Z,15.13
2018-05-07T04:14:40.245Z,14.37
2018-05-07T04:17:22.933Z,14.13
2018-05-07T04:20:02.642Z,14.20
2018-05-07T04:22:44.943Z,15.63
2018-05-07T04:25:21.638Z,14.53
2018-05-07T04:27:53.361Z,14.93
2018-05-07T04:30:25.837Z,14.70
2018-05-07T04:32:53.653Z,15.00
2018-05-07T04:35:26.490Z,14.30
2018-05-07T04:37:57.717Z,14.07
2018-05-07T04:47:09.091Z,15.37
2018-05-07T04:49:37.582Z,14.97
2018-05-07T04:52:05.414Z,14.47
2018-05-07T04:54:36.129Z,14.63
2018-05-07T04:57:06.244Z,14.93
2018-05-07T04:59:38.397Z,14.90
2018-05-07T05:02:07.353Z,15.67
2018-05-07T05:04:35.666Z,15.27
2018-05-07T05:07:04.647Z,17.30
2018-05-07T05:10:07.507Z,16.60
2018-05-07T05:12:37.837Z,16.07
2018-05-07T05:15:05.891Z,16.90
2018-05-07T05:17:33.494Z,17.87
2018-05-07T05:20:01.645Z,15.90
2018-05-07T05:22:36.320Z,16.37
2018-05-07T05:25:12.855Z,18.13
2018-05-07T05:27:45.481Z,18.00
2018-05-07T05:30:18.061Z,18.63
2018-05-07T05:32:46.462Z,15.87
2018-05-07T05:35:19.786Z,16.20
2018-05-07T05:37:48.049Z,16.57
2018-05-07T05:40:17.784Z,17.17
2018-05-07T05:42:47.807Z,16.30
2018-05-07T05:45:18.719Z,16.23
2018-05-07T05:47:47.189Z,18.90
2018-05-07T05:50:15.210Z,18.40
2018-05-07T05:52:43.141Z,18.60
2018-05-07T05:55:25.771Z,18.13
2018-05-07T05:57:54.115Z,21.60
2018-05-07T06:00:27.594Z,18.33
2018-05-07T06:02:57.446Z,19.80
2018-05-07T06:05:26.770Z,20.17
2018-05-07T06:07:55.697Z,20.90
2018-05-07T06:10:38.615Z,21.50
2018-05-07T06:13:07.258Z,19.60
2018-05-07T06:15:35.061Z,20.33
2018-05-07T06:18:02.607Z,20.60
2018-05-07T06:20:31.950Z,21.47
2018-05-07T06:22:59.495Z,21.60
2018-05-07T06:25:27.925Z,20.50
2018-05-07T06:27:55.959Z,24.53
2018-05-07T06:30:27.907Z,21.90
2018-05-07T06:32:56.077Z,25.27
2018-05-07T06:35:23.627Z,24.70
2018-05-07T06:37:52.218Z,27.93
2018-05-07T06:40:20.230Z,25.40
2018-05-07T06:42:49.596Z,26.20
2018-05-07T06:45:18.607Z,24.43
2018-05-07T06:47:46.220Z,29.63
2018-05-07T06:50:13.820Z,27.83
2018-05-07T06:52:42.792Z,28.70
2018-05-07T06:55:11.689Z,30.53
2018-05-07T06:57:40.833Z,29.57
2018-05-07T07:00:11.347Z,31.03
2018-05-07T07:02:41.617Z,30.10
2018-05-07T07:05:10.333Z,30.83
2018-05-07T07:07:39.871Z,30.20
2018-05-07T07:10:10.187Z,31.23
2018-05-07T07:12:39.093Z,29.13
2018-05-07T07:15:08.106Z,31.40
2018-05-07T07:17:38.009Z,30.33
2018-05-07T07:20:07.144Z,29.17
2018-05-07T07:22:37.123Z,30.67
2018-05-07T07:25:06.634Z,29.57
2018-05-07T07:27:36.319Z,28.67
2018-05-07T07:30:05.716Z,31.10
2018-05-07T07:32:37.361Z,28.77
2018-05-07T07:35:06.620Z,28.30
2018-05-07T07:37:35.652Z,29.77
2018-05-07T07:40:04.948Z,29.73
2018-05-07T07:42:34.602Z,30.27
2018-05-07T07:45:04.689Z,27.47
2018-05-07T07:47:33.608Z,27.97
2018-05-07T07:50:03.166Z,26.08
2018-05-07T07:52:33.579Z,26.02
2018-05-07T07:55:02.421Z,26.70
2018-05-07T07:57:32.414Z,27.00
2018-05-07T08:00:05.129Z,26.53
2018-05-07T08:02:37.223Z,25.63
2018-05-07T08:05:06.532Z,25.23
2018-05-07T08:07:35.967Z,25.43
2018-05-07T08:10:05.860Z,25.97
2018-05-07T08:13:14.048Z,25.62
2018-05-07T08:15:42.965Z,23.90
2018-05-07T08:18:12.186Z,24.87
2018-05-07T08:20:41.675Z,25.30
2018-05-07T08:23:10.562Z,24.43
2018-05-07T08:25:39.477Z,23.93
2018-05-07T08:28:08.397Z,24.70
2018-05-07T08:30:37.831Z,23.23
2018-05-07T08:33:09.719Z,24.57
2018-05-07T08:35:39.429Z,23.10
2018-05-07T08:38:08.831Z,22.87
2018-05-07T08:40:38.431Z,22.45
2018-05-07T08:43:08.417Z,22.92
2018-05-07T08:45:37.342Z,20.58
2018-05-07T08:48:07.376Z,19.70
2018-05-07T08:50:36.265Z,20.58
2018-05-07T08:53:06.053Z,19.25
2018-05-07T08:55:36.634Z,17.62
2018-05-07T08:58:13.468Z,17.45
2018-05-07T09:00:43.927Z,15.75
2018-05-07T09:03:13.400Z,15.75
2018-05-07T09:05:43.371Z,16.48
2018-05-07T09:08:12.774Z,16.92
2018-05-07T09:10:42.384Z,15.60
2018-05-07T09:13:12.392Z,14.15
2018-05-07T09:15:41.292Z,13.07
2018-05-07T09:18:10.202Z,13.68
2018-05-07T09:20:39.457Z,12.63
2018-05-07T09:23:08.847Z,13.00
2018-05-07T09:25:37.730Z,13.05
2018-05-07T09:28:08.099Z,12.52
2018-05-07T09:30:37.229Z,13.52
2018-05-07T09:33:06.972Z,12.85
2018-05-07T09:35:36.444Z,10.85
2018-05-07T09:38:07.911Z,12.75
2018-05-07T09:40:37.027Z,13.38
2018-05-07T09:43:05.962Z,11.85
2018-05-07T09:45:34.856Z,11.52
2018-05-07T09:48:03.756Z,13.00
2018-05-07T09:50:32.679Z,13.60
2018-05-07T09:53:02.085Z,12.63
2018-05-07T09:55:30.978Z,12.15
2018-05-07T09:58:02.864Z,14.07
2018-05-07T10:00:37.361Z,12.02
2018-05-07T10:03:06.912Z,13.70
2018-05-07T10:05:35.841Z,12.65
2018-05-07T10:08:07.562Z,14.05
2018-05-07T10:10:37.986Z,13.62
2018-05-07T10:13:07.228Z,14.32
2018-05-07T10:15:37.003Z,12.73
2018-05-07T10:18:07.396Z,12.15
2018-05-07T10:20:36.347Z,10.80
2018-05-07T10:23:06.136Z,11.25
2018-05-07T10:25:35.498Z,11.45
2018-05-07T10:28:05.653Z,12.68
2018-05-07T10:30:55.788Z,11.77
2018-05-07T10:33:24.680Z,11.27
2018-05-07T10:35:54.275Z,11.85
2018-05-07T10:38:23.171Z,12.88
2018-05-07T10:40:52.068Z,12.05
2018-05-07T10:43:20.949Z,11.70
2018-05-07T10:45:49.867Z,11.40
2018-05-07T10:48:18.743Z,9.90
2018-05-07T10:50:48.012Z,9.68
2018-05-07T10:53:18.684Z,10.32
2018-05-07T10:55:50.813Z,9.25
2018-05-07T10:58:20.409Z,7.70
2018-05-07T11:00:50.146Z,10.25
2018-05-07T11:03:21.026Z,10.60
2018-05-07T11:05:50.585Z,9.38
2018-05-07T11:08:19.453Z,8.48
2018-05-07T11:10:48.331Z,8.77
2018-05-07T11:13:23.937Z,9.25
2018-05-07T11:16:14.577Z,8.30
2018-05-07T11:18:44.022Z,8.55
2018-05-07T11:21:12.914Z,8.25
2018-05-07T11:23:41.797Z,8.65
2018-05-07T11:26:10.682Z,8.13
2018-05-07T11:28:39.856Z,8.60
2018-05-07T11:31:09.771Z,7.60
2018-05-07T11:33:38.872Z,7.12
2018-05-07T11:36:07.761Z,7.00
2018-05-07T11:38:39.292Z,6.87
2018-05-07T11:41:08.197Z,6.65
2018-05-07T11:43:37.118Z,13.20
2018-05-07T11:46:05.999Z,7.40
2018-05-07T11:48:34.896Z,7.57
2018-05-07T11:51:03.769Z,6.72
2018-05-07T11:53:32.641Z,5.75
2018-05-07T11:56:02.710Z,6.65
2018-05-07T11:58:31.579Z,6.78
2018-05-07T12:01:01.944Z,32.85
2018-05-07T12:03:30.830Z,6.40
2018-05-07T12:05:59.702Z,6.20
2018-05-07T12:08:30.502Z,5.82
2018-05-07T12:10:59.377Z,8.00
2018-05-07T12:13:28.803Z,6.03
2018-05-07T12:15:58.675Z,6.53
2018-05-07T12:18:28.325Z,6.90
2018-05-07T12:20:57.236Z,5.53
2018-05-07T12:23:26.495Z,5.95
2018-05-07T12:25:56.121Z,5.97
2018-05-07T12:28:25.342Z,5.43
2018-05-07T12:30:54.829Z,5.18
2018-05-07T12:33:25.200Z,5.25
2018-05-07T12:35:54.138Z,5.78
2018-05-07T12:38:23.716Z,4.93
2018-05-07T12:40:53.898Z,5.10
2018-05-07T12:43:25.284Z,5.72
2018-05-07T12:45:54.865Z,5.05
2018-05-07T12:51:33.801Z,4.47
2018-05-07T12:54:02.696Z,4.72
2018-05-07T12:56:31.586Z,5.35
2018-05-07T12:59:00.532Z,4.60
2018-05-07T13:01:29.370Z,5.15
2018-05-07T13:03:58.279Z,5.10
2018-05-07T13:06:27.276Z,5.22
2018-05-07T13:08:56.161Z,4.97
2018-05-07T13:11:25.724Z,5.50
2018-05-07T13:13:56.597Z,37.33
2018-05-07T13:16:26.037Z,30.45
2018-05-07T13:18:56.977Z,7.35
2018-05-07T13:21:26.026Z,6.00
2018-05-07T13:24:01.856Z,5.75
2018-05-07T13:26:45.616Z,5.15
2018-05-07T13:29:16.162Z,5.15
2018-05-07T13:31:48.821Z,5.53
2018-05-07T13:34:18.750Z,4.60
2018-05-07T13:36:47.800Z,4.20
2018-05-07T13:39:16.562Z,5.00
2018-05-07T13:41:45.488Z,23.42
2018-05-07T13:44:14.419Z,9.40
2018-05-07T13:46:44.961Z,4.85
2018-05-07T13:58:54.297Z,4.85
2018-05-07T14:01:24.036Z,5.28
2018-05-07T14:03:53.874Z,5.30
2018-05-07T14:06:22.745Z,4.78
2018-05-07T14:08:51.637Z,5.07
2018-05-07T14:11:20.519Z,5.18
2018-05-07T14:13:49.405Z,5.57
2018-05-07T14:16:18.274Z,5.75
2018-05-07T14:18:47.488Z,5.20
2018-05-07T14:21:16.353Z,4.43
2018-05-07T14:23:45.695Z,4.72
2018-05-07T14:26:16.239Z,4.97
2018-05-07T14:28:45.295Z,4.65
2018-05-07T14:31:14.865Z,4.65
2018-05-07T14:33:44.218Z,4.60
2018-05-07T14:36:13.118Z,5.12
2018-05-07T14:38:42.381Z,5.60
2018-05-07T14:41:11.893Z,5.00
2018-05-07T14:43:40.797Z,5.80
2018-05-07T14:46:15.956Z,5.07
2018-05-07T14:48:45.938Z,5.10
2018-05-07T14:51:16.650Z,4.68
2018-05-07T14:53:47.752Z,5.62
2018-05-07T14:56:18.730Z,5.68
2018-05-07T14:58:50.503Z,5.45
2018-05-07T15:01:21.839Z,5.70
2018-05-07T15:10:08.756Z,6.05
2018-05-07T15:12:37.801Z,5.60
2018-05-07T15:15:06.977Z,6.35
2018-05-07T15:17:36.172Z,5.53
2018-05-07T15:23:15.667Z,6.43
2018-05-07T15:25:45.177Z,5.95
2018-05-07T15:28:17.218Z,5.82
2018-05-07T15:30:46.131Z,5.95
2018-05-07T15:33:44.829Z,5.55
2018-05-07T15:36:16.649Z,5.50
2018-05-07T15:38:48.331Z,6.03
2018-05-07T15:41:22.639Z,6.20
2018-05-07T15:43:54.619Z,5.93
2018-05-07T15:46:23.523Z,5.72
2018-05-07T15:48:54.727Z,5.78
2018-05-07T15:51:23.613Z,6.05
2018-05-07T15:53:52.524Z,6.35
2018-05-07T15:56:21.780Z,6.93
2018-05-07T15:58:50.667Z,6.78
2018-05-07T16:01:19.536Z,7.18
2018-05-07T16:03:48.417Z,7.70
2018-05-07T16:06:17.604Z,6.30
2018-05-07T16:08:46.825Z,5.70
2018-05-07T16:11:15.711Z,6.20
2018-05-07T16:13:46.022Z,5.10
2018-05-07T16:16:14.935Z,5.43
2018-05-07T16:18:44.041Z,6.00
2018-05-07T16:21:13.448Z,6.43
2018-05-07T16:23:42.326Z,5.90
2018-05-07T16:26:11.908Z,6.05
2018-05-07T16:28:41.597Z,5.40
2018-05-07T16:31:10.586Z,5.80
2018-05-07T16:33:42.776Z,5.60
2018-05-07T16:39:42.733Z,5.40
2018-05-07T16:42:19.129Z,5.72
2018-05-07T16:44:48.612Z,5.75
2018-05-07T16:47:18.213Z,5.60
2018-05-07T16:49:48.093Z,5.53
2018-05-07T16:52:18.523Z,5.80
2018-05-07T16:54:50.151Z,5.20
2018-05-07T16:57:28.432Z,6.22
2018-05-07T16:59:58.841Z,5.87
2018-05-07T17:02:31.168Z,4.90
2018-05-07T17:05:00.790Z,5.72
2018-05-07T17:07:31.273Z,5.50
2018-05-07T17:10:01.275Z,5.95
2018-05-07T17:12:30.753Z,5.80
2018-05-07T17:15:00.120Z,5.50
2018-05-07T17:17:29.670Z,5.87
2018-05-07T17:23:09.558Z,5.20
2018-05-07T17:25:41.053Z,5.53
2018-05-07T17:28:11.366Z,5.95
2018-05-07T17:30:44.548Z,6.22
2018-05-07T17:33:15.306Z,6.32
2018-05-07T17:38:53.151Z,5.50
2018-05-07T17:41:24.252Z,5.32
2018-05-07T17:43:54.657Z,5.85
2018-05-07T17:46:29.981Z,5.62
2018-05-07T17:48:59.198Z,5.62
2018-05-07T17:51:29.307Z,6.00
2018-05-07T17:53:59.388Z,5.80
2018-05-07T17:56:29.123Z,5.65
2018-05-07T17:59:02.320Z,4.90
2018-05-07T18:01:32.803Z,5.07
2018-05-07T18:04:01.963Z,5.20
2018-05-07T18:06:32.540Z,5.03
2018-05-07T18:09:01.825Z,5.20
2018-05-07T18:11:31.811Z,5.30
2018-05-07T18:14:01.547Z,5.20
2018-05-07T18:16:32.057Z,5.47
2018-05-07T18:19:06.740Z,5.78
2018-05-07T18:21:39.049Z,6.93
2018-05-07T18:24:13.540Z,7.18
2018-05-07T18:26:45.602Z,7.35
2018-05-07T18:29:22.703Z,7.25
2018-05-07T18:31:54.793Z,7.47
2018-05-07T18:34:24.688Z,7.40
2018-05-07T18:36:56.355Z,7.47
2018-05-07T18:39:26.374Z,7.32
2018-05-07T18:41:55.263Z,7.57
2018-05-07T18:44:25.702Z,6.93
2018-05-07T18:46:55.326Z,7.37
2018-05-07T18:49:27.275Z,7.70
2018-05-07T18:55:07.471Z,6.68
2018-05-07T18:57:36.697Z,7.00
2018-05-07T19:00:06.655Z,6.87
2018-05-07T19:02:40.608Z,6.55
2018-05-07T19:05:12.076Z,6.12
2018-05-07T19:07:40.961Z,6.57
2018-05-07T19:10:09.838Z,6.90
2018-05-07T19:12:38.879Z,6.57
2018-05-07T19:15:12.621Z,6.78
2018-05-07T19:17:48.235Z,6.57
2018-05-07T19:20:18.737Z,6.95
2018-05-07T19:22:50.989Z,6.95
2018-05-07T19:25:20.547Z,7.55
2018-05-07T19:27:50.126Z,7.22
2018-05-07T19:30:21.635Z,7.18
2018-05-07T19:32:53.486Z,7.78
2018-05-07T19:35:24.289Z,7.35
2018-05-07T19:41:02.403Z,7.75
2018-05-07T19:43:33.999Z,8.27
2018-05-07T19:46:03.223Z,8.48
2018-05-07T19:48:34.870Z,8.77
2018-05-07T19:51:05.648Z,9.30
2018-05-07T19:53:56.531Z,9.15
2018-05-07T19:56:25.584Z,9.68
2018-05-07T19:58:56.493Z,9.65
2018-05-07T20:01:28.045Z,9.20
2018-05-07T20:03:58.139Z,9.80
2018-05-07T20:06:28.733Z,9.45
2018-05-07T20:12:06.202Z,10.43
2018-05-07T20:14:35.436Z,9.70
2018-05-07T20:17:04.327Z,9.52
2018-05-07T20:19:33.509Z,10.25
2018-05-07T20:22:03.243Z,9.68
2018-05-07T20:24:33.323Z,9.55
2018-05-07T20:27:06.716Z,9.43
2018-05-07T20:29:35.954Z,10.13
2018-05-07T20:32:08.641Z,10.18
2018-05-07T20:34:39.368Z,9.57
2018-05-07T20:37:11.121Z,10.13
2018-05-07T20:39:40.806Z,9.70
2018-05-07T20:42:10.987Z,9.75
2018-05-07T20:44:46.948Z,9.57
2018-05-07T20:47:20.348Z,10.23
2018-05-07T20:49:50.123Z,9.80
2018-05-07T20:52:23.956Z,10.50
2018-05-07T20:54:54.629Z,9.70
2018-05-07T20:57:25.896Z,10.10
2018-05-07T20:59:55.112Z,10.50
2018-05-07T21:02:24.925Z,10.47
2018-05-07T21:04:53.829Z,10.80
2018-05-07T21:07:25.079Z,10.30
2018-05-07T21:13:04.324Z,11.13
2018-05-07T21:15:33.549Z,11.20
2018-05-07T21:18:06.266Z,10.90
2018-05-07T21:20:35.533Z,10.57
2018-05-07T21:23:05.405Z,10.70
2018-05-07T21:25:35.590Z,11.00
2018-05-07T21:28:07.426Z,11.30
2018-05-07T21:30:38.733Z,12.10
2018-05-07T21:33:14.109Z,11.77
2018-05-07T21:35:45.942Z,11.67
2018-05-07T21:41:32.634Z,11.77
2018-05-07T21:44:02.057Z,11.00
2018-05-07T21:46:32.059Z,11.47
2018-05-07T21:49:03.095Z,13.23
2018-05-07T21:51:34.416Z,11.77
2018-05-07T21:57:16.550Z,11.93
2018-05-07T21:59:46.645Z,13.10
2018-05-07T22:02:24.654Z,12.50
2018-05-07T22:04:57.646Z,12.67
2018-05-07T22:07:29.490Z,12.07
2018-05-07T22:16:18.056Z,12.37
2018-05-07T22:18:54.884Z,12.13
2018-05-07T22:21:27.188Z,11.93
2018-05-07T22:23:57.795Z,12.33
2018-05-07T22:29:40.280Z,12.40
2018-05-07T22:32:15.194Z,12.20
2018-05-07T22:34:46.910Z,14.07
2018-05-07T22:37:17.502Z,14.17
2018-05-07T22:39:49.156Z,12.93
2018-05-07T22:42:21.599Z,12.67
2018-05-07T22:44:53.089Z,12.90
2018-05-07T22:47:22.636Z,13.67
2018-05-07T22:50:00.214Z,12.97
2018-05-07T22:52:34.911Z,13.43
2018-05-07T22:55:05.850Z,12.73
2018-05-07T22:57:35.648Z,13.33
2018-05-07T23:00:04.562Z,13.27
2018-05-07T23:02:35.915Z,13.03
2018-05-07T23:05:04.479Z,12.77
2018-05-07T23:07:33.087Z,13.97
2018-05-07T23:13:45.415Z,14.03
2018-05-07T23:18:52.091Z,14.77
2018-05-07T23:23:59.937Z,14.13
2018-05-07T23:26:29.220Z,14.53
2018-05-07T23:28:59.332Z,14.83
2018-05-07T23:31:35.830Z,14.70
2018-05-07T23:34:15.825Z,14.90
2018-05-07T23:36:59.573Z,14.57
2018-05-07T23:39:32.315Z,15.10
2018-05-07T23:45:33.978Z,14.60
2018-05-07T23:48:04.793Z,15.13
2018-05-07T23:50:37.595Z,14.60
2018-05-07T23:53:09.412Z,15.00
2018-05-07T23:56:04.912Z,15.50
2018-05-07T23:58:41.395Z,15.00
